Time;durP1;ratioP1;P1;durP2;ratioP2;P2;SDS_P1;SDS_P2;PMS_P1;PMS_P2;Temp;Humidity;BMP_temperature;BMP_pressure;BME280_temperature;BME280_humidity;BME280_pressure;Samples;Min_cycle;Max_cycle;Signal;HPM_P1;HPM_P2
2022/12/11 00:09:58;;;;;;;39.90;17.10;;;;;;;-3.48;100.00;99872.13;21072560;28;20105;-70
2022/12/11 00:20:00;;;;;;;51.08;22.13;;;;;;;-3.57;100.00;99874.38;21071716;28;20570;-70
2022/12/11 00:30:01;;;;;;;47.85;20.17;;;;;;;-3.68;100.00;99868.91;21070801;28;20177;-70
2022/12/11 00:40:02;;;;;;;44.78;20.92;;;;;;;-3.65;100.00;99864.75;21065445;28;20055;-70
2022/12/11 00:50:03;;;;;;;44.85;20.55;;;;;;;-3.73;100.00;99871.31;20979442;28;20106;-70
2022/12/11 01:00:08;;;;;;;51.67;23.70;;;;;;;-3.74;100.00;99878.94;20983266;28;20621;-70
2022/12/11 01:10:24;;;;;;;44.97;20.45;;;;;;;-3.87;100.00;99878.53;20985024;28;20064;-70
2022/12/11 01:20:26;;;;;;;43.63;19.13;;;;;;;-3.78;100.00;99892.47;21015071;28;20134;-71
2022/12/11 01:30:28;;;;;;;39.13;17.35;;;;;;;-3.67;100.00;99880.88;21067433;28;20056;-72
2022/12/11 01:40:29;;;;;;;38.05;17.35;;;;;;;-3.67;100.00;99878.31;21066979;28;20145;-71
2022/12/11 01:50:30;;;;;;;45.55;21.55;;;;;;;-3.63;100.00;99903.19;21066208;28;20052;-71
2022/12/11 02:00:31;;;;;;;42.45;19.50;;;;;;;-3.59;100.00;99905.03;21065442;28;20052;-71
2022/12/11 02:10:33;;;;;;;40.67;19.23;;;;;;;-3.61;100.00;99910.09;21069068;28;20117;-70
2022/12/11 02:20:34;;;;;;;40.13;18.63;;;;;;;-3.62;100.00;99903.25;21048023;28;20488;-70
2022/12/11 02:30:35;;;;;;;45.63;19.67;;;;;;;-3.48;100.00;99897.72;20999707;28;20052;-70
2022/12/11 02:40:37;;;;;;;51.50;21.73;;;;;;;-3.25;100.00;99883.09;21080139;28;20044;-70
2022/12/11 02:50:38;;;;;;;52.53;21.35;;;;;;;-3.20;100.00;99886.66;21079239;28;20052;-71
2022/12/11 03:00:39;;;;;;;52.28;20.92;;;;;;;-3.01;100.00;99875.28;21076974;28;20044;-71
2022/12/11 03:10:40;;;;;;;56.25;23.25;;;;;;;-2.94;100.00;99897.69;21076969;28;20455;-71
2022/12/11 03:20:42;;;;;;;61.97;23.25;;;;;;;-2.86;100.00;99886.84;21075190;28;20052;-71
2022/12/11 03:30:43;;;;;;;55.97;22.55;;;;;;;-2.74;100.00;99890.59;21075464;28;20055;-69
2022/12/11 03:40:44;;;;;;;63.03;23.63;;;;;;;-2.64;100.00;99893.44;21074857;28;20059;-71
2022/12/11 03:50:45;;;;;;;56.22;22.85;;;;;;;-2.66;100.00;99904.50;21074282;28;20488;-71
2022/12/11 04:00:47;;;;;;;58.53;22.98;;;;;;;-2.64;100.00;99907.97;21073579;28;20052;-71
2022/12/11 04:11:33;;;;;;;58.17;23.90;;;;;;;-2.52;100.00;99902.34;21072406;28;20113;-72
2022/12/11 04:31:29;;;;;;;68.32;25.48;;;;;;;-2.45;100.00;99873.47;21066562;28;20047;-70
2022/12/11 04:41:31;;;;;;;67.25;25.90;;;;;;;-2.47;100.00;99864.88;21064912;28;20718;-71
2022/12/11 04:51:32;;;;;;;73.20;27.88;;;;;;;-2.44;100.00;99858.16;21069327;28;20101;-71
2022/12/11 05:01:33;;;;;;;73.20;25.85;;;;;;;-2.36;100.00;99869.47;21068137;28;20540;-72
2022/12/11 05:11:34;;;;;;;74.57;27.95;;;;;;;-2.15;100.00;99863.19;21072513;22;20139;-77
2022/12/11 05:21:36;;;;;;;76.43;26.70;;;;;;;-2.11;100.00;99870.13;20956189;28;20060;-78
2022/12/11 05:31:37;;;;;;;67.05;26.27;;;;;;;-2.13;100.00;99861.53;20913013;28;20487;-77
2022/12/11 05:41:39;;;;;;;71.82;27.20;;;;;;;-2.12;100.00;99858.13;20986338;28;20056;-77
2022/12/11 05:51:40;;;;;;;65.53;25.48;;;;;;;-2.09;100.00;99843.69;20998403;28;20063;-75
2022/12/11 06:12:27;;;;;;;68.80;26.02;;;;;;;-2.39;100.00;99830.94;21021253;28;20610;-82
2022/12/11 06:22:28;;;;;;;78.57;26.58;;;;;;;-2.32;100.00;99835.41;21063262;28;20160;-81
2022/12/11 06:32:29;;;;;;;70.35;25.38;;;;;;;-2.34;100.00;99821.69;21095771;28;20048;-82
2022/12/11 06:42:31;;;;;;;77.13;27.23;;;;;;;-2.37;100.00;99803.66;21074731;28;20044;-82
2022/12/11 06:52:32;;;;;;;75.65;26.50;;;;;;;-2.39;100.00;99832.66;21074171;28;20135;-82
2022/12/11 07:02:33;;;;;;;70.05;25.95;;;;;;;-2.30;100.00;99835.44;21077049;28;20056;-82
2022/12/11 07:12:35;;;;;;;72.47;25.20;;;;;;;-2.22;100.00;99841.63;21014882;28;20056;-82
2022/12/11 07:22:36;;;;;;;68.03;23.67;;;;;;;-2.14;100.00;99836.72;20998905;28;20122;-82
2022/12/11 07:32:46;;;;;;;71.22;23.27;;;;;;;-2.07;100.00;99833.47;21001519;28;20479;-83
2022/12/11 07:42:47;;;;;;;71.88;24.33;;;;;;;-2.05;100.00;99834.41;21004878;28;20052;-83
2022/12/11 07:52:48;;;;;;;64.07;22.25;;;;;;;-1.93;100.00;99844.94;21007065;28;20113;-83
2022/12/11 08:02:51;;;;;;;66.93;23.17;;;;;;;-1.78;100.00;99848.72;21026883;28;20056;-84
2022/12/11 08:12:53;;;;;;;61.77;23.07;;;;;;;-1.67;100.00;99849.88;21004371;28;20200;-82
2022/12/11 08:23:01;;;;;;;65.00;24.10;;;;;;;-1.60;100.00;99849.19;20977658;28;20080;-82
2022/12/11 08:33:10;;;;;;;64.57;23.60;;;;;;;-1.45;100.00;99852.13;21000114;28;20144;-83
2022/12/11 08:43:20;;;;;;;60.53;23.23;;;;;;;-1.33;100.00;99844.72;20981716;28;20161;-83
2022/12/11 08:53:22;;;;;;;60.78;22.63;;;;;;;-1.30;100.00;99844.75;20998571;28;20063;-84
2022/12/11 09:03:23;;;;;;;55.70;20.45;;;;;;;-1.15;100.00;99827.97;20981529;28;20143;-84
2022/12/11 09:13:24;;;;;;;56.95;20.70;;;;;;;-1.00;100.00;99828.31;20986535;28;20097;-84
2022/12/11 09:23:27;;;;;;;53.80;20.65;;;;;;;-0.81;100.00;99821.88;20996943;28;20114;-84
2022/12/11 09:33:59;;;;;;;58.40;22.70;;;;;;;-0.63;100.00;99818.78;20994780;28;20413;-84
2022/12/11 09:44:02;;;;;;;53.60;21.45;;;;;;;-0.51;100.00;99816.47;21009579;28;20193;-84
2022/12/11 09:54:03;;;;;;;55.75;21.35;;;;;;;-0.41;100.00;99814.94;20996432;28;20056;-84
2022/12/11 10:04:05;;;;;;;52.55;21.50;;;;;;;-0.30;100.00;99816.00;20994963;28;20048;-84
2022/12/11 10:14:06;;;;;;;55.33;21.08;;;;;;;-0.21;100.00;99787.84;20994624;28;20417;-82
2022/12/11 10:24:14;;;;;;;64.75;24.67;;;;;;;-0.15;100.00;99781.94;20997013;28;20114;-83
2022/12/11 10:34:36;;;;;;;64.40;25.35;;;;;;;-0.12;100.00;99764.88;21010015;28;20102;-80
2022/12/11 10:44:37;;;;;;;53.97;23.23;;;;;;;-0.32;100.00;99759.38;21014732;28;20561;-80
2022/12/11 10:54:39;;;;;;;59.88;24.52;;;;;;;-0.01;100.00;99749.59;21014188;28;20055;-80
2022/12/11 11:04:40;;;;;;;65.78;25.40;;;;;;;0.26;100.00;99749.19;21015817;28;20143;-80
2022/12/11 11:14:42;;;;;;;61.35;26.73;;;;;;;0.48;100.00;99740.06;21082079;28;20059;-80
2022/12/11 11:24:44;;;;;;;64.15;25.60;;;;;;;0.36;100.00;99729.56;21013279;28;20053;-80
2022/12/11 11:34:45;;;;;;;57.22;24.58;;;;;;;0.13;100.00;99727.53;21017124;28;20056;-80
2022/12/11 11:44:47;;;;;;;60.50;26.23;;;;;;;0.18;100.00;99730.16;21019720;28;20510;-80
2022/12/11 11:54:48;;;;;;;58.20;24.80;;;;;;;0.18;100.00;99717.28;20986927;28;20420;-80
2022/12/11 12:04:50;;;;;;;59.80;23.98;;;;;;;0.37;100.00;99721.00;20983672;28;20528;-80
2022/12/11 12:14:51;;;;;;;54.75;23.38;;;;;;;0.49;100.00;99721.19;20985097;28;20090;-80
2022/12/11 12:24:53;;;;;;;64.32;27.80;;;;;;;0.44;100.00;99709.97;20998174;28;20052;-81
2022/12/11 12:34:54;;;;;;;58.45;25.63;;;;;;;0.67;100.00;99703.41;20980242;28;20044;-81
2022/12/11 12:44:55;;;;;;;56.00;24.35;;;;;;;0.72;100.00;99696.59;20993893;28;20057;-81
2022/12/11 12:55:17;;;;;;;54.88;24.15;;;;;;;0.86;100.00;99683.00;20959253;28;20048;-81
2022/12/11 13:05:19;;;;;;;51.83;22.85;;;;;;;0.84;100.00;99682.13;20915920;28;20112;-80
2022/12/11 13:15:20;;;;;;;55.50;22.67;;;;;;;1.00;100.00;99674.56;21033655;28;20136;-80
2022/12/11 13:25:21;;;;;;;54.75;24.15;;;;;;;0.93;100.00;99677.94;20997381;28;20723;-80
2022/12/11 13:35:22;;;;;;;51.30;22.17;;;;;;;0.81;100.00;99682.06;21029604;28;20056;-81
2022/12/11 13:45:24;;;;;;;57.83;22.85;;;;;;;0.72;100.00;99694.03;20987529;28;20055;-81
2022/12/11 13:55:25;;;;;;;48.17;21.70;;;;;;;0.74;100.00;99697.47;21040456;28;20087;-81
2022/12/11 14:05:27;;;;;;;46.45;21.73;;;;;;;0.80;100.00;99700.97;21018254;28;20052;-81
2022/12/11 14:15:28;;;;;;;51.33;23.17;;;;;;;0.64;100.00;99711.09;21034840;28;20063;-81
2022/12/11 14:25:30;;;;;;;53.85;22.35;;;;;;;0.49;100.00;99708.31;21042234;28;20052;-80
2022/12/11 14:35:31;;;;;;;53.80;24.02;;;;;;;0.42;100.00;99729.66;20997139;28;20449;-82
2022/12/11 14:45:39;;;;;;;50.13;21.55;;;;;;;0.41;100.00;99745.97;21007343;28;20052;-82
2022/12/11 14:55:40;;;;;;;51.30;22.75;;;;;;;0.42;100.00;99739.97;21034043;28;20524;-83
2022/12/11 15:05:41;;;;;;;56.88;23.73;;;;;;;0.27;100.00;99739.75;21064323;28;20055;-82
2022/12/11 15:15:43;;;;;;;52.55;23.30;;;;;;;0.19;100.00;99740.50;21043540;28;20060;-83
2022/12/11 15:25:44;;;;;;;70.78;32.55;;;;;;;0.13;100.00;99752.41;21054447;28;20056;-84
2022/12/11 15:35:46;;;;;;;59.92;27.63;;;;;;;0.10;100.00;99754.94;21068782;28;20080;-83
2022/12/11 15:45:47;;;;;;;56.67;24.08;;;;;;;0.08;100.00;99762.63;20989938;28;20096;-81
2022/12/11 15:55:49;;;;;;;54.25;24.23;;;;;;;0.09;100.00;99766.06;21048206;28;20059;-80
2022/12/11 16:05:51;;;;;;;57.72;25.77;;;;;;;0.11;100.00;99772.97;21025753;28;20044;-82
2022/12/11 16:15:53;;;;;;;67.03;28.23;;;;;;;0.01;100.00;99765.94;21023297;23;20119;-69
2022/12/11 16:25:54;;;;;;;69.25;28.85;;;;;;;-0.01;100.00;99755.59;20864608;28;20505;-69
2022/12/11 16:35:55;;;;;;;62.72;27.45;;;;;;;-0.04;100.00;99758.16;20953728;23;20099;-74
2022/12/11 16:45:57;;;;;;;63.35;28.05;;;;;;;-0.09;100.00;99756.34;20857690;28;20103;-72
2022/12/11 16:55:58;;;;;;;61.25;28.45;;;;;;;-0.10;100.00;99739.16;20860303;28;20041;-72
2022/12/11 17:05:59;;;;;;;57.67;26.80;;;;;;;-0.16;100.00;99749.34;20862245;28;20056;-70
2022/12/11 17:16:00;;;;;;;54.50;25.75;;;;;;;-0.16;100.00;99736.47;20851354;28;20049;-70
2022/12/11 17:26:02;;;;;;;64.88;28.65;;;;;;;-0.20;100.00;99734.69;20854138;28;20057;-72
2022/12/11 17:36:03;;;;;;;58.97;27.20;;;;;;;-0.38;100.00;99707.84;20887053;28;20091;-71
2022/12/11 17:46:04;;;;;;;61.35;26.40;;;;;;;-0.45;100.00;99734.28;20899536;28;20053;-71
2022/12/11 17:56:06;;;;;;;61.85;27.17;;;;;;;-0.63;100.00;99739.09;20902324;28;20092;-70
2022/12/11 18:06:07;;;;;;;60.78;27.05;;;;;;;-0.74;100.00;99728.59;20864877;28;20053;-70
2022/12/11 18:16:08;;;;;;;65.57;27.88;;;;;;;-0.83;100.00;99738.72;20867226;28;20460;-69
2022/12/11 18:26:13;;;;;;;66.40;29.90;;;;;;;-0.92;100.00;99749.66;20863861;28;20083;-69
2022/12/11 18:36:14;;;;;;;67.47;29.38;;;;;;;-0.99;100.00;99741.81;20860576;28;20045;-69
2022/12/11 18:46:15;;;;;;;65.05;28.58;;;;;;;-1.15;100.00;99736.38;20871770;28;20102;-69
2022/12/11 18:56:17;;;;;;;61.83;25.30;;;;;;;-1.34;100.00;99741.97;20859131;28;20088;-69
2022/12/11 19:06:18;;;;;;;53.80;22.60;;;;;;;-1.47;100.00;99750.25;20861300;28;20497;-69
2022/12/11 19:16:19;;;;;;;56.83;25.38;;;;;;;-1.32;100.00;99754.00;20861734;28;20061;-69
2022/12/11 19:26:21;;;;;;;62.33;26.10;;;;;;;-1.04;100.00;99744.31;20861831;28;20128;-69
2022/12/11 19:36:22;;;;;;;60.50;28.15;;;;;;;-0.89;100.00;99743.75;20858926;28;20053;-70
2022/12/11 19:46:24;;;;;;;68.68;30.45;;;;;;;-0.81;100.00;99747.34;20857305;28;20053;-70
2022/12/11 19:56:25;;;;;;;62.67;28.30;;;;;;;-0.83;100.00;99757.56;20854847;28;20049;-70
2022/12/11 20:06:26;;;;;;;66.80;30.27;;;;;;;-0.87;100.00;99757.47;20858632;28;20045;-70
2022/12/11 20:16:28;;;;;;;72.30;28.92;;;;;;;-0.81;100.00;99755.91;20862630;28;20057;-70
2022/12/11 20:26:49;;;;;;;63.35;27.52;;;;;;;-0.69;100.00;99767.25;20815071;28;20049;-70
2022/12/11 20:36:50;;;;;;;57.25;25.60;;;;;;;-0.74;100.00;99769.72;20818159;28;20497;-70
2022/12/11 20:46:52;;;;;;;58.42;26.10;;;;;;;-0.66;100.00;99772.47;20812966;28;20064;-69
2022/12/11 20:56:53;;;;;;;50.83;22.73;;;;;;;-0.59;100.00;99764.88;20834494;28;20053;-70
2022/12/11 21:06:55;;;;;;;59.05;24.65;;;;;;;-0.59;100.00;99767.44;20850026;28;20615;-71
2022/12/11 21:16:56;;;;;;;54.22;23.27;;;;;;;-0.56;100.00;99766.66;20853861;28;20046;-69
2022/12/11 21:26:57;;;;;;;49.92;21.38;;;;;;;-0.43;100.00;99771.19;20848038;28;20061;-70
2022/12/11 21:36:59;;;;;;;55.65;23.10;;;;;;;-0.41;100.00;99769.50;20845620;28;20045;-70
2022/12/11 21:47:00;;;;;;;53.13;20.55;;;;;;;-0.44;100.00;99773.72;20809327;28;20057;-70
2022/12/11 21:57:01;;;;;;;43.83;18.10;;;;;;;-0.37;100.00;99784.16;20807888;28;20049;-70
2022/12/11 22:07:03;;;;;;;46.33;18.90;;;;;;;-0.34;100.00;99780.75;20808866;28;20061;-71
2022/12/11 22:17:04;;;;;;;48.13;19.58;;;;;;;-0.31;100.00;99781.69;20867392;28;20046;-70
2022/12/11 22:27:05;;;;;;;53.92;22.25;;;;;;;-0.41;100.00;99787.50;20811727;28;20057;-70
2022/12/11 22:37:06;;;;;;;49.22;20.63;;;;;;;-0.45;100.00;99788.28;20861716;23;20050;-74
2022/12/11 22:47:08;;;;;;;56.30;21.63;;;;;;;-0.41;100.00;99784.06;20739351;28;20076;-74
2022/12/11 22:57:09;;;;;;;51.75;21.80;;;;;;;-0.40;100.00;99789.22;20740001;28;20065;-73
2022/12/11 23:07:10;;;;;;;48.67;20.50;;;;;;;-0.51;100.00;99788.19;20803275;28;20061;-72
2022/12/11 23:17:12;;;;;;;55.63;21.92;;;;;;;-0.58;100.00;99791.44;20828323;28;20469;-72
2022/12/11 23:27:14;;;;;;;58.78;23.35;;;;;;;-0.60;100.00;99798.28;20827815;28;20060;-72
2022/12/11 23:37:15;;;;;;;55.88;23.90;;;;;;;-0.64;100.00;99801.63;20894759;28;20394;-72
2022/12/11 23:47:16;;;;;;;58.35;23.67;;;;;;;-0.74;100.00;99804.84;20908574;28;20068;-71
2022/12/11 23:57:17;;;;;;;57.22;23.08;;;;;;;-0.95;100.00;99816.44;20908421;28;20424;-71
